sensor_id;sensor_type;location;lat;lon;timestamp;P1;durP1;ratioP1;P2;durP2;ratioP2
13289;SDS011;6713;50.954;5.310;2024-02-28T00:02:18;38.70;;;26.53;;
13289;SDS011;6713;50.954;5.310;2024-02-28T00:04:46;45.70;;;26.77;;
13289;SDS011;6713;50.954;5.310;2024-02-28T00:07:13;40.67;;;25.07;;
13289;SDS011;6713;50.954;5.310;2024-02-28T00:09:39;41.63;;;25.67;;
13289;SDS011;6713;50.954;5.310;2024-02-28T00:12:06;39.93;;;25.37;;
13289;SDS011;6713;50.954;5.310;2024-02-28T00:14:32;43.67;;;25.80;;
13289;SDS011;6713;50.954;5.310;2024-02-28T00:16:59;39.43;;;25.30;;
13289;SDS011;6713;50.954;5.310;2024-02-28T00:19:25;43.00;;;25.87;;
13289;SDS011;6713;50.954;5.310;2024-02-28T00:21:53;39.50;;;25.93;;
13289;SDS011;6713;50.954;5.310;2024-02-28T00:24:20;49.30;;;30.50;;
13289;SDS011;6713;50.954;5.310;2024-02-28T00:26:46;47.67;;;26.97;;
13289;SDS011;6713;50.954;5.310;2024-02-28T00:29:13;50.57;;;28.40;;
13289;SDS011;6713;50.954;5.310;2024-02-28T00:31:39;49.83;;;27.90;;
13289;SDS011;6713;50.954;5.310;2024-02-28T00:34:06;45.83;;;27.60;;
13289;SDS011;6713;50.954;5.310;2024-02-28T00:36:33;44.97;;;26.37;;
13289;SDS011;6713;50.954;5.310;2024-02-28T00:39:01;41.37;;;25.13;;
13289;SDS011;6713;50.954;5.310;2024-02-28T00:41:29;39.50;;;25.83;;
13289;SDS011;6713;50.954;5.310;2024-02-28T00:43:55;43.83;;;27.93;;
13289;SDS011;6713;50.954;5.310;2024-02-28T00:46:22;45.83;;;28.47;;
13289;SDS011;6713;50.954;5.310;2024-02-28T00:48:48;40.77;;;23.70;;
13289;SDS011;6713;50.954;5.310;2024-02-28T00:51:14;46.33;;;26.00;;
13289;SDS011;6713;50.954;5.310;2024-02-28T00:53:41;43.90;;;26.43;;
13289;SDS011;6713;50.954;5.310;2024-02-28T00:56:09;47.30;;;28.87;;
13289;SDS011;6713;50.954;5.310;2024-02-28T00:58:36;42.53;;;27.37;;
13289;SDS011;6713;50.954;5.310;2024-02-28T01:01:03;44.83;;;27.07;;
13289;SDS011;6713;50.954;5.310;2024-02-28T01:03:30;49.33;;;27.03;;
13289;SDS011;6713;50.954;5.310;2024-02-28T01:05:56;42.20;;;26.93;;
13289;SDS011;6713;50.954;5.310;2024-02-28T01:08:26;41.73;;;27.07;;
13289;SDS011;6713;50.954;5.310;2024-02-28T01:10:52;46.93;;;26.37;;
13289;SDS011;6713;50.954;5.310;2024-02-28T01:13:20;44.93;;;27.40;;
13289;SDS011;6713;50.954;5.310;2024-02-28T01:15:46;46.90;;;26.97;;
13289;SDS011;6713;50.954;5.310;2024-02-28T01:18:13;46.27;;;26.17;;
13289;SDS011;6713;50.954;5.310;2024-02-28T01:20:39;41.70;;;26.00;;
13289;SDS011;6713;50.954;5.310;2024-02-28T01:23:05;50.97;;;28.03;;
13289;SDS011;6713;50.954;5.310;2024-02-28T01:25:32;41.57;;;26.73;;
13289;SDS011;6713;50.954;5.310;2024-02-28T01:27:58;45.30;;;26.60;;
13289;SDS011;6713;50.954;5.310;2024-02-28T01:30:26;39.30;;;25.53;;
13289;SDS011;6713;50.954;5.310;2024-02-28T01:32:52;44.47;;;26.67;;
13289;SDS011;6713;50.954;5.310;2024-02-28T01:35:19;52.83;;;28.93;;
13289;SDS011;6713;50.954;5.310;2024-02-28T01:37:45;50.13;;;28.37;;
13289;SDS011;6713;50.954;5.310;2024-02-28T01:40:12;45.30;;;24.70;;
13289;SDS011;6713;50.954;5.310;2024-02-28T01:42:39;41.73;;;25.53;;
13289;SDS011;6713;50.954;5.310;2024-02-28T01:45:05;48.17;;;26.90;;
13289;SDS011;6713;50.954;5.310;2024-02-28T01:47:35;45.20;;;25.87;;
13289;SDS011;6713;50.954;5.310;2024-02-28T01:50:02;45.27;;;26.40;;
13289;SDS011;6713;50.954;5.310;2024-02-28T01:52:28;42.63;;;24.93;;
13289;SDS011;6713;50.954;5.310;2024-02-28T01:54:55;44.90;;;26.00;;
13289;SDS011;6713;50.954;5.310;2024-02-28T01:57:22;48.83;;;27.37;;
13289;SDS011;6713;50.954;5.310;2024-02-28T01:59:49;42.30;;;25.73;;
13289;SDS011;6713;50.954;5.310;2024-02-28T02:02:15;46.50;;;29.07;;
13289;SDS011;6713;50.954;5.310;2024-02-28T02:04:43;42.00;;;27.97;;
13289;SDS011;6713;50.954;5.310;2024-02-28T02:07:10;45.70;;;26.10;;
13289;SDS011;6713;50.954;5.310;2024-02-28T02:09:36;43.67;;;25.73;;
13289;SDS011;6713;50.954;5.310;2024-02-28T02:12:03;47.03;;;26.37;;
13289;SDS011;6713;50.954;5.310;2024-02-28T02:14:29;44.53;;;27.73;;
13289;SDS011;6713;50.954;5.310;2024-02-28T02:16:56;47.40;;;27.63;;
13289;SDS011;6713;50.954;5.310;2024-02-28T02:19:22;41.13;;;25.77;;
13289;SDS011;6713;50.954;5.310;2024-02-28T02:21:52;44.40;;;26.00;;
13289;SDS011;6713;50.954;5.310;2024-02-28T02:24:20;42.30;;;25.77;;
13289;SDS011;6713;50.954;5.310;2024-02-28T02:26:46;36.63;;;23.17;;
13289;SDS011;6713;50.954;5.310;2024-02-28T02:29:13;50.43;;;29.20;;
13289;SDS011;6713;50.954;5.310;2024-02-28T02:31:39;47.43;;;26.10;;
13289;SDS011;6713;50.954;5.310;2024-02-28T02:34:06;52.07;;;29.90;;
13289;SDS011;6713;50.954;5.310;2024-02-28T02:36:32;41.33;;;24.73;;
13289;SDS011;6713;50.954;5.310;2024-02-28T02:38:59;43.27;;;28.20;;
13289;SDS011;6713;50.954;5.310;2024-02-28T02:41:27;40.00;;;26.07;;
13289;SDS011;6713;50.954;5.310;2024-02-28T02:43:53;50.33;;;28.57;;
13289;SDS011;6713;50.954;5.310;2024-02-28T02:46:20;47.07;;;26.57;;
13289;SDS011;6713;50.954;5.310;2024-02-28T02:48:46;40.63;;;27.20;;
13289;SDS011;6713;50.954;5.310;2024-02-28T02:51:12;45.27;;;27.20;;
13289;SDS011;6713;50.954;5.310;2024-02-28T02:53:39;46.33;;;26.43;;
13289;SDS011;6713;50.954;5.310;2024-02-28T02:56:06;44.33;;;24.27;;
13289;SDS011;6713;50.954;5.310;2024-02-28T02:58:34;38.10;;;22.57;;
13289;SDS011;6713;50.954;5.310;2024-02-28T03:01:00;43.80;;;25.03;;
13289;SDS011;6713;50.954;5.310;2024-02-28T03:03:26;45.50;;;25.67;;
13289;SDS011;6713;50.954;5.310;2024-02-28T03:05:53;44.57;;;24.57;;
13289;SDS011;6713;50.954;5.310;2024-02-28T03:08:19;39.87;;;23.93;;
13289;SDS011;6713;50.954;5.310;2024-02-28T03:10:46;43.90;;;26.27;;
13289;SDS011;6713;50.954;5.310;2024-02-28T03:13:12;41.07;;;25.60;;
13289;SDS011;6713;50.954;5.310;2024-02-28T03:15:40;42.23;;;25.53;;
13289;SDS011;6713;50.954;5.310;2024-02-28T03:18:06;36.17;;;23.00;;
13289;SDS011;6713;50.954;5.310;2024-02-28T03:20:33;37.30;;;23.97;;
13289;SDS011;6713;50.954;5.310;2024-02-28T03:23:01;40.63;;;23.00;;
13289;SDS011;6713;50.954;5.310;2024-02-28T03:25:28;36.27;;;23.73;;
13289;SDS011;6713;50.954;5.310;2024-02-28T03:27:54;39.53;;;24.47;;
13289;SDS011;6713;50.954;5.310;2024-02-28T03:30:21;39.60;;;23.50;;
13289;SDS011;6713;50.954;5.310;2024-02-28T03:32:49;38.03;;;24.40;;
13289;SDS011;6713;50.954;5.310;2024-02-28T03:35:15;38.27;;;23.17;;
13289;SDS011;6713;50.954;5.310;2024-02-28T03:37:41;37.47;;;22.93;;
13289;SDS011;6713;50.954;5.310;2024-02-28T03:40:08;44.57;;;24.17;;
13289;SDS011;6713;50.954;5.310;2024-02-28T03:42:35;36.93;;;24.53;;
13289;SDS011;6713;50.954;5.310;2024-02-28T03:45:01;34.63;;;22.80;;
13289;SDS011;6713;50.954;5.310;2024-02-28T03:47:28;41.27;;;22.53;;
13289;SDS011;6713;50.954;5.310;2024-02-28T03:49:56;52.60;;;24.63;;
13289;SDS011;6713;50.954;5.310;2024-02-28T03:52:24;39.17;;;21.93;;
13289;SDS011;6713;50.954;5.310;2024-02-28T03:54:50;41.90;;;25.47;;
13289;SDS011;6713;50.954;5.310;2024-02-28T03:57:16;40.77;;;23.73;;
13289;SDS011;6713;50.954;5.310;2024-02-28T03:59:42;38.50;;;24.97;;
13289;SDS011;6713;50.954;5.310;2024-02-28T04:02:09;39.90;;;24.40;;
13289;SDS011;6713;50.954;5.310;2024-02-28T04:04:35;41.17;;;26.93;;
13289;SDS011;6713;50.954;5.310;2024-02-28T04:07:03;41.87;;;25.27;;
13289;SDS011;6713;50.954;5.310;2024-02-28T04:09:29;41.90;;;24.13;;
13289;SDS011;6713;50.954;5.310;2024-02-28T04:11:56;42.93;;;24.90;;
13289;SDS011;6713;50.954;5.310;2024-02-28T04:14:22;38.77;;;24.57;;
13289;SDS011;6713;50.954;5.310;2024-02-28T04:16:48;39.50;;;23.73;;
13289;SDS011;6713;50.954;5.310;2024-02-28T04:19:15;36.20;;;24.03;;
13289;SDS011;6713;50.954;5.310;2024-02-28T04:21:42;42.30;;;25.83;;
13289;SDS011;6713;50.954;5.310;2024-02-28T04:24:10;44.10;;;24.90;;
13289;SDS011;6713;50.954;5.310;2024-02-28T04:26:36;43.27;;;25.40;;
13289;SDS011;6713;50.954;5.310;2024-02-28T04:29:02;47.67;;;27.73;;
13289;SDS011;6713;50.954;5.310;2024-02-28T04:31:31;56.53;;;29.87;;
13289;SDS011;6713;50.954;5.310;2024-02-28T04:33:57;43.03;;;25.23;;
13289;SDS011;6713;50.954;5.310;2024-02-28T04:36:23;43.53;;;26.13;;
13289;SDS011;6713;50.954;5.310;2024-02-28T04:38:50;52.30;;;29.03;;
13289;SDS011;6713;50.954;5.310;2024-02-28T04:41:18;43.07;;;26.23;;
13289;SDS011;6713;50.954;5.310;2024-02-28T04:43:44;40.07;;;23.63;;
13289;SDS011;6713;50.954;5.310;2024-02-28T04:46:10;43.73;;;27.00;;
13289;SDS011;6713;50.954;5.310;2024-02-28T04:48:37;46.07;;;25.23;;
13289;SDS011;6713;50.954;5.310;2024-02-28T04:51:03;36.73;;;23.57;;
13289;SDS011;6713;50.954;5.310;2024-02-28T04:53:30;37.43;;;25.03;;
13289;SDS011;6713;50.954;5.310;2024-02-28T04:55:56;50.13;;;27.17;;
13289;SDS011;6713;50.954;5.310;2024-02-28T04:58:24;43.43;;;25.53;;
13289;SDS011;6713;50.954;5.310;2024-02-28T05:00:50;37.97;;;23.57;;
13289;SDS011;6713;50.954;5.310;2024-02-28T05:03:17;38.33;;;24.10;;
13289;SDS011;6713;50.954;5.310;2024-02-28T05:05:44;36.93;;;22.93;;
13289;SDS011;6713;50.954;5.310;2024-02-28T05:08:10;38.93;;;24.07;;
13289;SDS011;6713;50.954;5.310;2024-02-28T05:10:36;40.03;;;23.33;;
13289;SDS011;6713;50.954;5.310;2024-02-28T05:13:04;43.63;;;23.43;;
13289;SDS011;6713;50.954;5.310;2024-02-28T05:15:31;37.23;;;24.47;;
13289;SDS011;6713;50.954;5.310;2024-02-28T05:17:58;42.27;;;24.97;;
13289;SDS011;6713;50.954;5.310;2024-02-28T05:20:24;41.63;;;26.87;;
13289;SDS011;6713;50.954;5.310;2024-02-28T05:22:51;43.63;;;24.77;;
13289;SDS011;6713;50.954;5.310;2024-02-28T05:25:17;38.30;;;23.47;;
13289;SDS011;6713;50.954;5.310;2024-02-28T05:27:43;37.97;;;24.50;;
13289;SDS011;6713;50.954;5.310;2024-02-28T05:30:10;41.77;;;25.23;;
13289;SDS011;6713;50.954;5.310;2024-02-28T05:32:38;37.33;;;22.37;;
13289;SDS011;6713;50.954;5.310;2024-02-28T05:35:05;36.30;;;22.17;;
13289;SDS011;6713;50.954;5.310;2024-02-28T05:37:31;40.97;;;24.50;;
13289;SDS011;6713;50.954;5.310;2024-02-28T05:39:58;38.83;;;22.33;;
13289;SDS011;6713;50.954;5.310;2024-02-28T05:42:24;38.77;;;23.47;;
13289;SDS011;6713;50.954;5.310;2024-02-28T05:44:51;32.50;;;22.83;;
13289;SDS011;6713;50.954;5.310;2024-02-28T05:47:17;38.43;;;23.13;;
13289;SDS011;6713;50.954;5.310;2024-02-28T05:49:45;37.53;;;23.50;;
13289;SDS011;6713;50.954;5.310;2024-02-28T05:52:11;42.60;;;23.77;;
13289;SDS011;6713;50.954;5.310;2024-02-28T05:54:38;39.80;;;24.40;;
13289;SDS011;6713;50.954;5.310;2024-02-28T05:57:05;38.30;;;23.00;;
13289;SDS011;6713;50.954;5.310;2024-02-28T05:59:31;30.80;;;21.73;;
13289;SDS011;6713;50.954;5.310;2024-02-28T06:01:57;35.50;;;22.57;;
13289;SDS011;6713;50.954;5.310;2024-02-28T06:04:24;31.93;;;20.90;;
13289;SDS011;6713;50.954;5.310;2024-02-28T06:06:52;30.13;;;20.27;;
13289;SDS011;6713;50.954;5.310;2024-02-28T06:09:18;29.80;;;21.13;;
13289;SDS011;6713;50.954;5.310;2024-02-28T06:11:44;31.60;;;19.40;;
13289;SDS011;6713;50.954;5.310;2024-02-28T06:14:11;33.80;;;21.87;;
13289;SDS011;6713;50.954;5.310;2024-02-28T06:16:37;31.60;;;20.27;;
13289;SDS011;6713;50.954;5.310;2024-02-28T06:19:04;36.83;;;21.33;;
13289;SDS011;6713;50.954;5.310;2024-02-28T06:21:30;42.30;;;24.90;;
13289;SDS011;6713;50.954;5.310;2024-02-28T06:23:58;46.70;;;25.87;;
13289;SDS011;6713;50.954;5.310;2024-02-28T06:26:24;43.63;;;26.50;;
13289;SDS011;6713;50.954;5.310;2024-02-28T06:28:51;41.40;;;24.83;;
13289;SDS011;6713;50.954;5.310;2024-02-28T06:31:18;38.70;;;24.67;;
13289;SDS011;6713;50.954;5.310;2024-02-28T06:33:44;41.03;;;24.73;;
13289;SDS011;6713;50.954;5.310;2024-02-28T06:36:11;43.97;;;25.93;;
13289;SDS011;6713;50.954;5.310;2024-02-28T06:38:40;40.40;;;26.83;;
13289;SDS011;6713;50.954;5.310;2024-02-28T06:41:08;47.33;;;24.80;;
13289;SDS011;6713;50.954;5.310;2024-02-28T06:43:34;41.93;;;23.37;;
13289;SDS011;6713;50.954;5.310;2024-02-28T06:46:01;40.60;;;24.67;;
13289;SDS011;6713;50.954;5.310;2024-02-28T06:48:27;41.67;;;23.87;;
13289;SDS011;6713;50.954;5.310;2024-02-28T06:50:54;37.00;;;22.13;;
13289;SDS011;6713;50.954;5.310;2024-02-28T06:53:20;38.37;;;23.50;;
13289;SDS011;6713;50.954;5.310;2024-02-28T06:55:47;38.27;;;23.77;;
13289;SDS011;6713;50.954;5.310;2024-02-28T06:58:15;44.87;;;25.70;;
13289;SDS011;6713;50.954;5.310;2024-02-28T07:00:41;46.63;;;25.23;;
13289;SDS011;6713;50.954;5.310;2024-02-28T07:03:08;41.80;;;25.80;;
13289;SDS011;6713;50.954;5.310;2024-02-28T07:05:34;38.33;;;23.30;;
13289;SDS011;6713;50.954;5.310;2024-02-28T07:08:01;42.57;;;25.67;;
13289;SDS011;6713;50.954;5.310;2024-02-28T07:10:27;40.20;;;25.13;;
13289;SDS011;6713;50.954;5.310;2024-02-28T07:12:53;41.50;;;24.60;;
13289;SDS011;6713;50.954;5.310;2024-02-28T07:15:21;41.40;;;23.90;;
13289;SDS011;6713;50.954;5.310;2024-02-28T07:17:47;38.40;;;23.40;;
13289;SDS011;6713;50.954;5.310;2024-02-28T07:20:13;36.20;;;23.07;;
13289;SDS011;6713;50.954;5.310;2024-02-28T07:22:42;41.00;;;23.80;;
13289;SDS011;6713;50.954;5.310;2024-02-28T07:25:09;43.70;;;24.00;;
13289;SDS011;6713;50.954;5.310;2024-02-28T07:27:35;46.33;;;25.50;;
13289;SDS011;6713;50.954;5.310;2024-02-28T07:30:01;44.90;;;25.53;;
13289;SDS011;6713;50.954;5.310;2024-02-28T07:32:29;41.60;;;24.40;;
13289;SDS011;6713;50.954;5.310;2024-02-28T07:34:59;47.17;;;24.20;;
13289;SDS011;6713;50.954;5.310;2024-02-28T07:37:26;49.73;;;25.80;;
13289;SDS011;6713;50.954;5.310;2024-02-28T07:39:52;57.13;;;27.17;;
13289;SDS011;6713;50.954;5.310;2024-02-28T07:42:18;54.00;;;27.27;;
13289;SDS011;6713;50.954;5.310;2024-02-28T07:44:45;65.73;;;29.57;;
13289;SDS011;6713;50.954;5.310;2024-02-28T07:47:12;61.23;;;27.97;;
13289;SDS011;6713;50.954;5.310;2024-02-28T07:49:59;70.97;;;30.47;;
13289;SDS011;6713;50.954;5.310;2024-02-28T07:52:28;75.47;;;30.80;;
13289;SDS011;6713;50.954;5.310;2024-02-28T07:54:54;72.67;;;30.30;;
13289;SDS011;6713;50.954;5.310;2024-02-28T07:57:21;91.20;;;32.30;;
13289;SDS011;6713;50.954;5.310;2024-02-28T07:59:47;78.27;;;30.63;;
13289;SDS011;6713;50.954;5.310;2024-02-28T08:02:15;82.17;;;29.30;;
13289;SDS011;6713;50.954;5.310;2024-02-28T08:04:45;83.83;;;31.10;;
13289;SDS011;6713;50.954;5.310;2024-02-28T08:07:12;86.70;;;30.00;;
13289;SDS011;6713;50.954;5.310;2024-02-28T08:09:40;86.27;;;31.30;;
13289;SDS011;6713;50.954;5.310;2024-02-28T08:12:06;96.70;;;32.10;;
13289;SDS011;6713;50.954;5.310;2024-02-28T08:14:33;88.53;;;28.77;;
13289;SDS011;6713;50.954;5.310;2024-02-28T08:16:59;86.47;;;28.23;;
13289;SDS011;6713;50.954;5.310;2024-02-28T08:19:26;90.87;;;30.13;;
13289;SDS011;6713;50.954;5.310;2024-02-28T08:21:52;80.07;;;28.63;;
13289;SDS011;6713;50.954;5.310;2024-02-28T08:24:20;81.20;;;24.90;;
13289;SDS011;6713;50.954;5.310;2024-02-28T08:26:46;77.53;;;26.37;;
13289;SDS011;6713;50.954;5.310;2024-02-28T08:29:13;75.40;;;25.27;;
13289;SDS011;6713;50.954;5.310;2024-02-28T08:31:40;78.93;;;25.37;;
13289;SDS011;6713;50.954;5.310;2024-02-28T08:34:07;65.30;;;23.37;;
13289;SDS011;6713;50.954;5.310;2024-02-28T08:36:33;69.37;;;24.77;;
13289;SDS011;6713;50.954;5.310;2024-02-28T08:39:00;60.40;;;22.13;;
13289;SDS011;6713;50.954;5.310;2024-02-28T08:41:28;64.00;;;22.03;;
13289;SDS011;6713;50.954;5.310;2024-02-28T08:43:54;51.50;;;21.57;;
13289;SDS011;6713;50.954;5.310;2024-02-28T08:46:21;49.80;;;20.73;;
13289;SDS011;6713;50.954;5.310;2024-02-28T08:48:47;42.00;;;17.90;;
13289;SDS011;6713;50.954;5.310;2024-02-28T08:51:13;41.70;;;17.80;;
13289;SDS011;6713;50.954;5.310;2024-02-28T08:53:40;38.87;;;17.00;;
13289;SDS011;6713;50.954;5.310;2024-02-28T08:56:06;35.77;;;17.27;;
13289;SDS011;6713;50.954;5.310;2024-02-28T08:58:34;33.30;;;18.27;;
13289;SDS011;6713;50.954;5.310;2024-02-28T09:01:02;37.80;;;18.00;;
13289;SDS011;6713;50.954;5.310;2024-02-28T09:03:29;37.10;;;17.13;;
13289;SDS011;6713;50.954;5.310;2024-02-28T09:05:55;35.80;;;17.17;;
13289;SDS011;6713;50.954;5.310;2024-02-28T09:08:22;31.27;;;15.87;;
13289;SDS011;6713;50.954;5.310;2024-02-28T09:10:48;35.87;;;17.47;;
13289;SDS011;6713;50.954;5.310;2024-02-28T09:13:15;36.00;;;16.50;;
13289;SDS011;6713;50.954;5.310;2024-02-28T09:15:44;33.33;;;17.03;;
13289;SDS011;6713;50.954;5.310;2024-02-28T09:18:10;31.13;;;16.47;;
13289;SDS011;6713;50.954;5.310;2024-02-28T09:20:37;33.13;;;16.97;;
13289;SDS011;6713;50.954;5.310;2024-02-28T09:23:03;31.97;;;16.07;;
13289;SDS011;6713;50.954;5.310;2024-02-28T09:25:31;27.17;;;14.87;;
13289;SDS011;6713;50.954;5.310;2024-02-28T09:27:59;27.80;;;16.47;;
13289;SDS011;6713;50.954;5.310;2024-02-28T09:30:26;25.40;;;14.27;;
13289;SDS011;6713;50.954;5.310;2024-02-28T09:32:54;24.73;;;14.83;;
13289;SDS011;6713;50.954;5.310;2024-02-28T09:35:20;24.37;;;13.87;;
13289;SDS011;6713;50.954;5.310;2024-02-28T09:37:47;28.70;;;14.70;;
13289;SDS011;6713;50.954;5.310;2024-02-28T09:40:13;18.97;;;12.67;;
13289;SDS011;6713;50.954;5.310;2024-02-28T09:42:40;24.87;;;13.80;;
13289;SDS011;6713;50.954;5.310;2024-02-28T09:45:07;22.67;;;13.10;;
13289;SDS011;6713;50.954;5.310;2024-02-28T09:47:34;20.53;;;12.17;;
13289;SDS011;6713;50.954;5.310;2024-02-28T09:50:02;22.10;;;12.10;;
13289;SDS011;6713;50.954;5.310;2024-02-28T09:52:29;22.40;;;13.13;;
13289;SDS011;6713;50.954;5.310;2024-02-28T09:54:55;21.57;;;12.90;;
13289;SDS011;6713;50.954;5.310;2024-02-28T09:57:22;20.50;;;12.50;;
13289;SDS011;6713;50.954;5.310;2024-02-28T09:59:53;17.33;;;12.10;;
13289;SDS011;6713;50.954;5.310;2024-02-28T10:02:20;20.10;;;11.90;;
13289;SDS011;6713;50.954;5.310;2024-02-28T10:04:48;24.57;;;13.03;;
13289;SDS011;6713;50.954;5.310;2024-02-28T10:07:17;23.50;;;12.53;;
13289;SDS011;6713;50.954;5.310;2024-02-28T10:09:43;15.47;;;10.83;;
13289;SDS011;6713;50.954;5.310;2024-02-28T10:12:10;17.13;;;10.93;;
13289;SDS011;6713;50.954;5.310;2024-02-28T10:14:36;18.80;;;12.47;;
13289;SDS011;6713;50.954;5.310;2024-02-28T10:17:03;16.77;;;10.53;;
13289;SDS011;6713;50.954;5.310;2024-02-28T10:19:30;19.93;;;13.10;;
13289;SDS011;6713;50.954;5.310;2024-02-28T10:21:56;18.67;;;10.57;;
13289;SDS011;6713;50.954;5.310;2024-02-28T10:24:25;20.83;;;12.23;;
13289;SDS011;6713;50.954;5.310;2024-02-28T10:26:51;18.53;;;12.07;;
13289;SDS011;6713;50.954;5.310;2024-02-28T10:29:21;18.80;;;11.37;;
13289;SDS011;6713;50.954;5.310;2024-02-28T10:31:47;21.13;;;13.17;;
13289;SDS011;6713;50.954;5.310;2024-02-28T10:34:14;19.10;;;12.50;;
13289;SDS011;6713;50.954;5.310;2024-02-28T10:36:42;17.53;;;10.13;;
13289;SDS011;6713;50.954;5.310;2024-02-28T10:39:10;21.20;;;11.97;;
13289;SDS011;6713;50.954;5.310;2024-02-28T10:41:38;19.23;;;11.47;;
13289;SDS011;6713;50.954;5.310;2024-02-28T10:44:05;17.67;;;11.13;;
13289;SDS011;6713;50.954;5.310;2024-02-28T10:46:32;15.97;;;10.67;;
13289;SDS011;6713;50.954;5.310;2024-02-28T10:48:58;16.40;;;10.90;;
13289;SDS011;6713;50.954;5.310;2024-02-28T10:51:25;15.20;;;9.60;;
13289;SDS011;6713;50.954;5.310;2024-02-28T10:53:54;13.50;;;8.70;;
13289;SDS011;6713;50.954;5.310;2024-02-28T10:56:27;15.00;;;10.63;;
13289;SDS011;6713;50.954;5.310;2024-02-28T10:58:56;17.00;;;10.90;;
13289;SDS011;6713;50.954;5.310;2024-02-28T11:01:25;14.50;;;9.90;;
13289;SDS011;6713;50.954;5.310;2024-02-28T11:03:52;17.73;;;9.97;;
13289;SDS011;6713;50.954;5.310;2024-02-28T11:06:19;21.27;;;11.03;;
13289;SDS011;6713;50.954;5.310;2024-02-28T11:08:46;14.43;;;10.47;;
13289;SDS011;6713;50.954;5.310;2024-02-28T11:11:14;15.10;;;9.83;;
13289;SDS011;6713;50.954;5.310;2024-02-28T11:13:50;15.57;;;9.77;;
13289;SDS011;6713;50.954;5.310;2024-02-28T11:16:25;15.50;;;9.87;;
13289;SDS011;6713;50.954;5.310;2024-02-28T11:18:52;21.47;;;12.97;;
13289;SDS011;6713;50.954;5.310;2024-02-28T11:21:18;23.30;;;13.73;;
13289;SDS011;6713;50.954;5.310;2024-02-28T11:23:45;24.57;;;14.80;;
13289;SDS011;6713;50.954;5.310;2024-02-28T11:26:13;20.07;;;11.37;;
13289;SDS011;6713;50.954;5.310;2024-02-28T11:28:39;16.47;;;11.30;;
13289;SDS011;6713;50.954;5.310;2024-02-28T11:31:06;18.97;;;11.13;;
13289;SDS011;6713;50.954;5.310;2024-02-28T11:33:33;15.50;;;10.37;;
13289;SDS011;6713;50.954;5.310;2024-02-28T11:36:00;16.47;;;10.50;;
13289;SDS011;6713;50.954;5.310;2024-02-28T11:38:28;14.03;;;9.80;;
13289;SDS011;6713;50.954;5.310;2024-02-28T11:40:54;16.20;;;10.33;;
13289;SDS011;6713;50.954;5.310;2024-02-28T11:43:21;13.73;;;10.57;;
13289;SDS011;6713;50.954;5.310;2024-02-28T11:45:47;16.93;;;10.00;;
13289;SDS011;6713;50.954;5.310;2024-02-28T11:48:14;14.77;;;9.80;;
13289;SDS011;6713;50.954;5.310;2024-02-28T11:50:42;13.70;;;9.10;;
13289;SDS011;6713;50.954;5.310;2024-02-28T11:53:08;18.30;;;10.40;;
13289;SDS011;6713;50.954;5.310;2024-02-28T11:55:35;13.57;;;8.63;;
13289;SDS011;6713;50.954;5.310;2024-02-28T11:58:06;12.27;;;9.03;;
13289;SDS011;6713;50.954;5.310;2024-02-28T12:00:45;14.93;;;9.50;;
13289;SDS011;6713;50.954;5.310;2024-02-28T12:03:11;13.70;;;8.30;;
13289;SDS011;6713;50.954;5.310;2024-02-28T12:05:38;10.67;;;7.97;;
13289;SDS011;6713;50.954;5.310;2024-02-28T12:08:06;11.73;;;8.10;;
13289;SDS011;6713;50.954;5.310;2024-02-28T12:10:34;12.57;;;8.57;;
13289;SDS011;6713;50.954;5.310;2024-02-28T12:13:01;12.17;;;9.37;;
13289;SDS011;6713;50.954;5.310;2024-02-28T12:15:28;10.87;;;7.57;;
13289;SDS011;6713;50.954;5.310;2024-02-28T12:17:54;12.60;;;7.63;;
13289;SDS011;6713;50.954;5.310;2024-02-28T12:20:23;12.77;;;8.23;;
13289;SDS011;6713;50.954;5.310;2024-02-28T12:22:49;14.77;;;8.63;;
13289;SDS011;6713;50.954;5.310;2024-02-28T12:25:17;11.30;;;7.37;;
13289;SDS011;6713;50.954;5.310;2024-02-28T12:27:43;11.97;;;8.03;;
13289;SDS011;6713;50.954;5.310;2024-02-28T12:30:10;11.67;;;7.13;;
13289;SDS011;6713;50.954;5.310;2024-02-28T12:32:36;9.77;;;6.17;;
13289;SDS011;6713;50.954;5.310;2024-02-28T12:35:05;12.47;;;8.03;;
13289;SDS011;6713;50.954;5.310;2024-02-28T12:37:32;10.00;;;6.83;;
13289;SDS011;6713;50.954;5.310;2024-02-28T12:39:58;12.53;;;7.07;;
13289;SDS011;6713;50.954;5.310;2024-02-28T12:42:26;12.47;;;7.13;;
13289;SDS011;6713;50.954;5.310;2024-02-28T12:44:52;7.73;;;5.93;;
13289;SDS011;6713;50.954;5.310;2024-02-28T12:47:19;10.83;;;7.90;;
13289;SDS011;6713;50.954;5.310;2024-02-28T12:49:45;14.53;;;8.90;;
13289;SDS011;6713;50.954;5.310;2024-02-28T12:52:12;7.93;;;5.33;;
13289;SDS011;6713;50.954;5.310;2024-02-28T12:54:38;6.57;;;5.60;;
13289;SDS011;6713;50.954;5.310;2024-02-28T12:57:04;7.10;;;5.07;;
13289;SDS011;6713;50.954;5.310;2024-02-28T12:59:32;7.07;;;4.90;;
13289;SDS011;6713;50.954;5.310;2024-02-28T13:01:59;7.27;;;5.00;;
13289;SDS011;6713;50.954;5.310;2024-02-28T13:04:25;6.30;;;4.60;;
13289;SDS011;6713;50.954;5.310;2024-02-28T13:06:53;4.87;;;4.23;;
13289;SDS011;6713;50.954;5.310;2024-02-28T13:09:19;4.90;;;3.40;;
13289;SDS011;6713;50.954;5.310;2024-02-28T13:11:47;5.53;;;3.73;;
13289;SDS011;6713;50.954;5.310;2024-02-28T13:14:14;5.23;;;4.10;;
13289;SDS011;6713;50.954;5.310;2024-02-28T13:16:42;5.00;;;3.30;;
13289;SDS011;6713;50.954;5.310;2024-02-28T13:19:09;6.57;;;4.07;;
13289;SDS011;6713;50.954;5.310;2024-02-28T13:21:35;5.43;;;3.47;;
13289;SDS011;6713;50.954;5.310;2024-02-28T13:24:02;4.30;;;3.57;;
13289;SDS011;6713;50.954;5.310;2024-02-28T13:26:29;4.17;;;3.50;;
13289;SDS011;6713;50.954;5.310;2024-02-28T13:28:55;5.83;;;4.40;;
13289;SDS011;6713;50.954;5.310;2024-02-28T13:31:22;5.27;;;4.17;;
13289;SDS011;6713;50.954;5.310;2024-02-28T13:33:50;4.13;;;3.20;;
13289;SDS011;6713;50.954;5.310;2024-02-28T13:36:16;4.23;;;3.60;;
13289;SDS011;6713;50.954;5.310;2024-02-28T13:38:43;4.70;;;4.03;;
13289;SDS011;6713;50.954;5.310;2024-02-28T13:41:09;4.80;;;3.30;;
13289;SDS011;6713;50.954;5.310;2024-02-28T13:43:36;4.53;;;3.20;;
13289;SDS011;6713;50.954;5.310;2024-02-28T13:46:02;3.53;;;2.77;;
13289;SDS011;6713;50.954;5.310;2024-02-28T13:48:30;4.33;;;3.43;;
13289;SDS011;6713;50.954;5.310;2024-02-28T13:50:59;3.70;;;2.10;;
13289;SDS011;6713;50.954;5.310;2024-02-28T13:53:27;3.20;;;2.60;;
13289;SDS011;6713;50.954;5.310;2024-02-28T13:55:53;3.37;;;2.37;;
13289;SDS011;6713;50.954;5.310;2024-02-28T13:58:19;3.83;;;2.90;;
13289;SDS011;6713;50.954;5.310;2024-02-28T14:00:46;4.70;;;4.13;;
13289;SDS011;6713;50.954;5.310;2024-02-28T14:03:13;3.33;;;2.67;;
13289;SDS011;6713;50.954;5.310;2024-02-28T14:05:39;3.50;;;2.60;;
13289;SDS011;6713;50.954;5.310;2024-02-28T14:08:08;3.10;;;2.40;;
13289;SDS011;6713;50.954;5.310;2024-02-28T14:10:36;2.87;;;2.57;;
13289;SDS011;6713;50.954;5.310;2024-02-28T14:13:03;3.67;;;2.50;;
13289;SDS011;6713;50.954;5.310;2024-02-28T14:15:29;3.43;;;2.53;;
13289;SDS011;6713;50.954;5.310;2024-02-28T14:17:56;2.87;;;2.10;;
13289;SDS011;6713;50.954;5.310;2024-02-28T14:20:22;3.90;;;2.90;;
13289;SDS011;6713;50.954;5.310;2024-02-28T14:22:49;2.60;;;1.93;;
13289;SDS011;6713;50.954;5.310;2024-02-28T14:25:17;2.30;;;2.10;;
13289;SDS011;6713;50.954;5.310;2024-02-28T14:27:45;3.50;;;2.43;;
13289;SDS011;6713;50.954;5.310;2024-02-28T14:30:12;5.53;;;2.43;;
13289;SDS011;6713;50.954;5.310;2024-02-28T14:32:39;2.33;;;1.80;;
13289;SDS011;6713;50.954;5.310;2024-02-28T14:35:06;3.40;;;2.40;;
13289;SDS011;6713;50.954;5.310;2024-02-28T14:37:33;3.27;;;2.07;;